sensor_id;sensor_type;location;lat;lon;timestamp;P1;durP1;ratioP1;P2;durP2;ratioP2
37891;SDS011;45797;47.466;9.486;2024-02-26T00:03:53;1.00;;;0.50;;
37891;SDS011;45797;47.466;9.486;2024-02-26T00:09:17;0.95;;;0.50;;
37891;SDS011;45797;47.466;9.486;2024-02-26T00:14:38;0.55;;;0.40;;
37891;SDS011;45797;47.466;9.486;2024-02-26T00:20:00;0.75;;;0.45;;
37891;SDS011;45797;47.466;9.486;2024-02-26T00:25:24;0.40;;;0.40;;
37891;SDS011;45797;47.466;9.486;2024-02-26T00:30:46;0.40;;;0.32;;
37891;SDS011;45797;47.466;9.486;2024-02-26T00:36:08;0.60;;;0.43;;
37891;SDS011;45797;47.466;9.486;2024-02-26T00:41:33;1.20;;;0.50;;
37891;SDS011;45797;47.466;9.486;2024-02-26T00:46:53;0.30;;;0.30;;
37891;SDS011;45797;47.466;9.486;2024-02-26T00:52:14;0.47;;;0.30;;
37891;SDS011;45797;47.466;9.486;2024-02-26T00:57:39;0.57;;;0.47;;
37891;SDS011;45797;47.466;9.486;2024-02-26T01:03:01;0.50;;;0.30;;
37891;SDS011;45797;47.466;9.486;2024-02-26T01:08:21;0.50;;;0.38;;
37891;SDS011;45797;47.466;9.486;2024-02-26T01:13:42;0.55;;;0.40;;
37891;SDS011;45797;47.466;9.486;2024-02-26T01:19:03;0.60;;;0.40;;
37891;SDS011;45797;47.466;9.486;2024-02-26T01:24:33;0.38;;;0.30;;
37891;SDS011;45797;47.466;9.486;2024-02-26T01:35:17;0.60;;;0.40;;
37891;SDS011;45797;47.466;9.486;2024-02-26T01:40:50;0.30;;;0.30;;
37891;SDS011;45797;47.466;9.486;2024-02-26T01:46:12;0.68;;;0.40;;
37891;SDS011;45797;47.466;9.486;2024-02-26T01:51:48;0.30;;;0.30;;
37891;SDS011;45797;47.466;9.486;2024-02-26T01:57:08;0.45;;;0.40;;
37891;SDS011;45797;47.466;9.486;2024-02-26T02:02:31;0.30;;;0.30;;
37891;SDS011;45797;47.466;9.486;2024-02-26T02:07:54;0.40;;;0.32;;
37891;SDS011;45797;47.466;9.486;2024-02-26T02:13:15;0.47;;;0.38;;
37891;SDS011;45797;47.466;9.486;2024-02-26T02:18:37;0.55;;;0.38;;
37891;SDS011;45797;47.466;9.486;2024-02-26T02:23:59;1.58;;;0.80;;
37891;SDS011;45797;47.466;9.486;2024-02-26T02:29:22;3.80;;;1.30;;
37891;SDS011;45797;47.466;9.486;2024-02-26T02:34:44;2.47;;;1.08;;
37891;SDS011;45797;47.466;9.486;2024-02-26T02:40:06;1.92;;;0.93;;
37891;SDS011;45797;47.466;9.486;2024-02-26T02:45:29;4.10;;;0.80;;
37891;SDS011;45797;47.466;9.486;2024-02-26T02:50:51;2.28;;;0.90;;
37891;SDS011;45797;47.466;9.486;2024-02-26T02:56:14;1.88;;;0.82;;
37891;SDS011;45797;47.466;9.486;2024-02-26T03:01:50;1.83;;;0.90;;
37891;SDS011;45797;47.466;9.486;2024-02-26T03:07:12;1.83;;;0.85;;
37891;SDS011;45797;47.466;9.486;2024-02-26T03:12:34;2.05;;;0.85;;
37891;SDS011;45797;47.466;9.486;2024-02-26T03:17:55;2.85;;;0.82;;
37891;SDS011;45797;47.466;9.486;2024-02-26T03:23:15;1.90;;;0.65;;
37891;SDS011;45797;47.466;9.486;2024-02-26T03:28:37;1.25;;;0.65;;
37891;SDS011;45797;47.466;9.486;2024-02-26T03:33:57;1.50;;;0.70;;
37891;SDS011;45797;47.466;9.486;2024-02-26T03:39:18;2.13;;;0.88;;
37891;SDS011;45797;47.466;9.486;2024-02-26T03:44:38;1.33;;;0.70;;
37891;SDS011;45797;47.466;9.486;2024-02-26T03:55:24;1.30;;;0.60;;
37891;SDS011;45797;47.466;9.486;2024-02-26T04:00:53;1.20;;;0.60;;
37891;SDS011;45797;47.466;9.486;2024-02-26T04:06:14;1.20;;;0.55;;
37891;SDS011;45797;47.466;9.486;2024-02-26T04:11:36;1.83;;;0.70;;
37891;SDS011;45797;47.466;9.486;2024-02-26T04:17:04;1.15;;;0.60;;
37891;SDS011;45797;47.466;9.486;2024-02-26T04:22:24;1.75;;;0.70;;
37891;SDS011;45797;47.466;9.486;2024-02-26T04:38:33;1.98;;;0.70;;
37891;SDS011;45797;47.466;9.486;2024-02-26T04:43:54;3.05;;;0.77;;
37891;SDS011;45797;47.466;9.486;2024-02-26T04:49:16;1.70;;;0.70;;
37891;SDS011;45797;47.466;9.486;2024-02-26T04:54:37;2.17;;;0.77;;
37891;SDS011;45797;47.466;9.486;2024-02-26T05:05:40;2.20;;;0.88;;
37891;SDS011;45797;47.466;9.486;2024-02-26T05:11:18;2.05;;;0.75;;
37891;SDS011;45797;47.466;9.486;2024-02-26T05:16:45;2.30;;;0.90;;
37891;SDS011;45797;47.466;9.486;2024-02-26T05:22:07;1.80;;;0.80;;
37891;SDS011;45797;47.466;9.486;2024-02-26T05:27:28;1.63;;;0.88;;
37891;SDS011;45797;47.466;9.486;2024-02-26T05:33:05;1.58;;;0.73;;
37891;SDS011;45797;47.466;9.486;2024-02-26T05:38:41;1.95;;;0.98;;
37891;SDS011;45797;47.466;9.486;2024-02-26T05:44:03;2.00;;;0.90;;
37891;SDS011;45797;47.466;9.486;2024-02-26T05:49:30;2.45;;;1.10;;
37891;SDS011;45797;47.466;9.486;2024-02-26T05:54:51;1.95;;;0.70;;
37891;SDS011;45797;47.466;9.486;2024-02-26T06:00:13;1.40;;;0.80;;
37891;SDS011;45797;47.466;9.486;2024-02-26T06:05:33;0.80;;;0.50;;
37891;SDS011;45797;47.466;9.486;2024-02-26T06:11:09;1.65;;;0.80;;
37891;SDS011;45797;47.466;9.486;2024-02-26T06:16:31;1.42;;;0.70;;
37891;SDS011;45797;47.466;9.486;2024-02-26T06:22:02;2.25;;;0.70;;
37891;SDS011;45797;47.466;9.486;2024-02-26T06:27:24;1.20;;;0.50;;
37891;SDS011;45797;47.466;9.486;2024-02-26T06:32:45;1.20;;;0.70;;
37891;SDS011;45797;47.466;9.486;2024-02-26T06:38:13;1.00;;;0.57;;
37891;SDS011;45797;47.466;9.486;2024-02-26T06:43:40;2.58;;;0.90;;
37891;SDS011;45797;47.466;9.486;2024-02-26T06:49:00;1.67;;;0.70;;
37891;SDS011;45797;47.466;9.486;2024-02-26T06:54:23;1.98;;;0.75;;
37891;SDS011;45797;47.466;9.486;2024-02-26T06:59:49;1.48;;;0.80;;
37891;SDS011;45797;47.466;9.486;2024-02-26T07:05:11;3.05;;;0.70;;
37891;SDS011;45797;47.466;9.486;2024-02-26T07:10:32;1.15;;;0.60;;
37891;SDS011;45797;47.466;9.486;2024-02-26T07:15:52;1.17;;;0.60;;
37891;SDS011;45797;47.466;9.486;2024-02-26T07:26:36;2.53;;;0.80;;
37891;SDS011;45797;47.466;9.486;2024-02-26T07:31:59;2.95;;;1.10;;
37891;SDS011;45797;47.466;9.486;2024-02-26T07:37:30;3.03;;;0.90;;
37891;SDS011;45797;47.466;9.486;2024-02-26T07:42:51;2.03;;;1.15;;
37891;SDS011;45797;47.466;9.486;2024-02-26T07:48:14;4.40;;;1.48;;
37891;SDS011;45797;47.466;9.486;2024-02-26T07:53:34;3.22;;;1.50;;
37891;SDS011;45797;47.466;9.486;2024-02-26T07:58:56;3.30;;;1.52;;
37891;SDS011;45797;47.466;9.486;2024-02-26T08:04:16;3.95;;;1.70;;
37891;SDS011;45797;47.466;9.486;2024-02-26T08:09:38;2.92;;;1.30;;
37891;SDS011;45797;47.466;9.486;2024-02-26T08:20:23;3.05;;;1.52;;
37891;SDS011;45797;47.466;9.486;2024-02-26T08:25:46;3.83;;;1.35;;
37891;SDS011;45797;47.466;9.486;2024-02-26T08:31:06;2.40;;;1.38;;
37891;SDS011;45797;47.466;9.486;2024-02-26T08:36:28;3.92;;;1.67;;
37891;SDS011;45797;47.466;9.486;2024-02-26T08:41:58;3.40;;;1.48;;
37891;SDS011;45797;47.466;9.486;2024-02-26T08:52:45;2.63;;;1.20;;
37891;SDS011;45797;47.466;9.486;2024-02-26T08:58:08;2.78;;;1.20;;
37891;SDS011;45797;47.466;9.486;2024-02-26T09:03:29;3.47;;;1.35;;
37891;SDS011;45797;47.466;9.486;2024-02-26T09:08:49;2.80;;;1.23;;
37891;SDS011;45797;47.466;9.486;2024-02-26T09:14:12;3.78;;;1.60;;
37891;SDS011;45797;47.466;9.486;2024-02-26T09:19:34;3.50;;;1.50;;
37891;SDS011;45797;47.466;9.486;2024-02-26T09:25:01;2.53;;;1.27;;
37891;SDS011;45797;47.466;9.486;2024-02-26T09:30:24;2.50;;;1.25;;
37891;SDS011;45797;47.466;9.486;2024-02-26T09:35:50;2.25;;;1.20;;
37891;SDS011;45797;47.466;9.486;2024-02-26T09:41:15;3.42;;;1.55;;
37891;SDS011;45797;47.466;9.486;2024-02-26T09:52:06;2.70;;;1.73;;
37891;SDS011;45797;47.466;9.486;2024-02-26T09:57:29;3.13;;;1.40;;
37891;SDS011;45797;47.466;9.486;2024-02-26T10:02:50;4.22;;;1.70;;
37891;SDS011;45797;47.466;9.486;2024-02-26T10:08:12;3.35;;;1.70;;
37891;SDS011;45797;47.466;9.486;2024-02-26T10:13:35;2.85;;;1.40;;
37891;SDS011;45797;47.466;9.486;2024-02-26T10:18:57;2.83;;;1.45;;
37891;SDS011;45797;47.466;9.486;2024-02-26T10:24:18;5.28;;;1.50;;
37891;SDS011;45797;47.466;9.486;2024-02-26T10:29:39;4.20;;;1.60;;
37891;SDS011;45797;47.466;9.486;2024-02-26T10:35:09;2.33;;;1.33;;
37891;SDS011;45797;47.466;9.486;2024-02-26T10:40:30;3.30;;;1.30;;
37891;SDS011;45797;47.466;9.486;2024-02-26T10:45:51;6.28;;;1.77;;
37891;SDS011;45797;47.466;9.486;2024-02-26T10:51:12;2.80;;;1.35;;
37891;SDS011;45797;47.466;9.486;2024-02-26T11:02:02;2.80;;;1.50;;
37891;SDS011;45797;47.466;9.486;2024-02-26T11:07:25;3.80;;;1.80;;
37891;SDS011;45797;47.466;9.486;2024-02-26T11:12:48;4.22;;;1.98;;
37891;SDS011;45797;47.466;9.486;2024-02-26T11:18:13;4.00;;;1.77;;
37891;SDS011;45797;47.466;9.486;2024-02-26T11:23:35;3.42;;;1.50;;
37891;SDS011;45797;47.466;9.486;2024-02-26T11:28:57;6.00;;;1.73;;
37891;SDS011;45797;47.466;9.486;2024-02-26T11:34:18;4.68;;;1.83;;
37891;SDS011;45797;47.466;9.486;2024-02-26T11:45:48;6.47;;;1.60;;
37891;SDS011;45797;47.466;9.486;2024-02-26T12:02:09;2.58;;;1.40;;
37891;SDS011;45797;47.466;9.486;2024-02-26T12:07:32;3.05;;;1.60;;
37891;SDS011;45797;47.466;9.486;2024-02-26T12:12:59;3.63;;;1.63;;
37891;SDS011;45797;47.466;9.486;2024-02-26T12:18:24;2.40;;;1.40;;
37891;SDS011;45797;47.466;9.486;2024-02-26T12:23:45;2.83;;;1.30;;
37891;SDS011;45797;47.466;9.486;2024-02-26T12:29:10;5.63;;;1.58;;
37891;SDS011;45797;47.466;9.486;2024-02-26T12:34:31;4.88;;;1.90;;
37891;SDS011;45797;47.466;9.486;2024-02-26T12:39:52;5.50;;;1.92;;
37891;SDS011;45797;47.466;9.486;2024-02-26T12:45:13;5.63;;;1.77;;
37891;SDS011;45797;47.466;9.486;2024-02-26T12:50:37;4.55;;;1.85;;
37891;SDS011;45797;47.466;9.486;2024-02-26T12:55:59;3.88;;;1.80;;
37891;SDS011;45797;47.466;9.486;2024-02-26T13:01:22;3.95;;;1.85;;
37891;SDS011;45797;47.466;9.486;2024-02-26T13:06:54;4.93;;;1.88;;
37891;SDS011;45797;47.466;9.486;2024-02-26T13:17:45;3.60;;;1.98;;
37891;SDS011;45797;47.466;9.486;2024-02-26T13:23:08;3.42;;;1.52;;
37891;SDS011;45797;47.466;9.486;2024-02-26T13:28:32;4.93;;;2.03;;
37891;SDS011;45797;47.466;9.486;2024-02-26T13:33:53;6.20;;;1.40;;
37891;SDS011;45797;47.466;9.486;2024-02-26T13:39:26;3.67;;;1.75;;
37891;SDS011;45797;47.466;9.486;2024-02-26T13:44:48;3.63;;;1.70;;
37891;SDS011;45797;47.466;9.486;2024-02-26T13:50:15;4.65;;;1.70;;
37891;SDS011;45797;47.466;9.486;2024-02-26T13:55:36;4.05;;;1.85;;
37891;SDS011;45797;47.466;9.486;2024-02-26T14:01:03;3.65;;;1.60;;
37891;SDS011;45797;47.466;9.486;2024-02-26T14:11:49;4.13;;;1.58;;
37891;SDS011;45797;47.466;9.486;2024-02-26T14:17:11;5.07;;;1.75;;
37891;SDS011;45797;47.466;9.486;2024-02-26T14:22:32;9.25;;;2.03;;
37891;SDS011;45797;47.466;9.486;2024-02-26T14:28:03;3.53;;;1.80;;
37891;SDS011;45797;47.466;9.486;2024-02-26T14:33:36;5.07;;;1.95;;
37891;SDS011;45797;47.466;9.486;2024-02-26T14:38:58;4.00;;;1.67;;
37891;SDS011;45797;47.466;9.486;2024-02-26T14:44:20;3.25;;;1.45;;
37891;SDS011;45797;47.466;9.486;2024-02-26T14:49:41;10.52;;;3.58;;
37891;SDS011;45797;47.466;9.486;2024-02-26T15:00:32;11.35;;;3.63;;
37891;SDS011;45797;47.466;9.486;2024-02-26T15:05:55;10.93;;;3.92;;
37891;SDS011;45797;47.466;9.486;2024-02-26T15:11:15;8.20;;;3.30;;
37891;SDS011;45797;47.466;9.486;2024-02-26T15:16:42;7.35;;;3.05;;
37891;SDS011;45797;47.466;9.486;2024-02-26T15:22:02;4.97;;;2.53;;
37891;SDS011;45797;47.466;9.486;2024-02-26T15:27:24;4.25;;;2.40;;
37891;SDS011;45797;47.466;9.486;2024-02-26T15:43:55;4.75;;;2.30;;
37891;SDS011;45797;47.466;9.486;2024-02-26T15:49:16;6.45;;;2.20;;
37891;SDS011;45797;47.466;9.486;2024-02-26T15:54:41;4.32;;;2.08;;
37891;SDS011;45797;47.466;9.486;2024-02-26T16:00:12;5.13;;;2.50;;
37891;SDS011;45797;47.466;9.486;2024-02-26T16:05:43;5.28;;;2.25;;
37891;SDS011;45797;47.466;9.486;2024-02-26T16:11:06;6.57;;;2.22;;
37891;SDS011;45797;47.466;9.486;2024-02-26T16:16:32;7.05;;;3.38;;
37891;SDS011;45797;47.466;9.486;2024-02-26T16:21:54;5.47;;;2.30;;
37891;SDS011;45797;47.466;9.486;2024-02-26T16:27:24;3.90;;;1.90;;
37891;SDS011;45797;47.466;9.486;2024-02-26T16:32:45;4.80;;;1.90;;
37891;SDS011;45797;47.466;9.486;2024-02-26T16:38:23;4.03;;;2.17;;
37891;SDS011;45797;47.466;9.486;2024-02-26T16:43:44;3.80;;;1.73;;
37891;SDS011;45797;47.466;9.486;2024-02-26T16:49:07;3.80;;;1.40;;
37891;SDS011;45797;47.466;9.486;2024-02-26T16:54:29;4.97;;;2.13;;
37891;SDS011;45797;47.466;9.486;2024-02-26T16:59:50;3.97;;;1.55;;
37891;SDS011;45797;47.466;9.486;2024-02-26T17:05:25;4.03;;;1.52;;
37891;SDS011;45797;47.466;9.486;2024-02-26T17:10:47;5.18;;;1.77;;
37891;SDS011;45797;47.466;9.486;2024-02-26T17:16:07;4.75;;;1.60;;
37891;SDS011;45797;47.466;9.486;2024-02-26T17:21:29;3.90;;;1.60;;
37891;SDS011;45797;47.466;9.486;2024-02-26T17:26:51;3.58;;;1.70;;
37891;SDS011;45797;47.466;9.486;2024-02-26T17:32:11;3.45;;;1.30;;
37891;SDS011;45797;47.466;9.486;2024-02-26T17:37:33;2.10;;;1.20;;
37891;SDS011;45797;47.466;9.486;2024-02-26T17:42:54;4.28;;;1.25;;
37891;SDS011;45797;47.466;9.486;2024-02-26T17:48:15;2.75;;;1.35;;
37891;SDS011;45797;47.466;9.486;2024-02-26T17:53:44;4.03;;;1.30;;
37891;SDS011;45797;47.466;9.486;2024-02-26T17:59:07;5.95;;;1.33;;
37891;SDS011;45797;47.466;9.486;2024-02-26T18:04:29;2.45;;;1.05;;
37891;SDS011;45797;47.466;9.486;2024-02-26T18:10:06;2.63;;;1.27;;
37891;SDS011;45797;47.466;9.486;2024-02-26T18:15:29;4.55;;;1.60;;
37891;SDS011;45797;47.466;9.486;2024-02-26T18:20:51;2.33;;;0.95;;
37891;SDS011;45797;47.466;9.486;2024-02-26T18:31:42;3.25;;;1.48;;
37891;SDS011;45797;47.466;9.486;2024-02-26T18:37:12;7.60;;;1.58;;
37891;SDS011;45797;47.466;9.486;2024-02-26T18:42:35;3.42;;;1.00;;
37891;SDS011;45797;47.466;9.486;2024-02-26T18:48:00;3.05;;;1.00;;
37891;SDS011;45797;47.466;9.486;2024-02-26T18:53:22;2.67;;;1.20;;
37891;SDS011;45797;47.466;9.486;2024-02-26T18:58:42;2.25;;;1.10;;
37891;SDS011;45797;47.466;9.486;2024-02-26T19:04:03;2.10;;;1.00;;
37891;SDS011;45797;47.466;9.486;2024-02-26T19:09:24;2.40;;;1.00;;
37891;SDS011;45797;47.466;9.486;2024-02-26T19:14:45;2.97;;;0.98;;
37891;SDS011;45797;47.466;9.486;2024-02-26T19:20:06;2.58;;;1.10;;
37891;SDS011;45797;47.466;9.486;2024-02-26T19:25:27;1.70;;;0.90;;
37891;SDS011;45797;47.466;9.486;2024-02-26T19:30:48;3.15;;;1.00;;
37891;SDS011;45797;47.466;9.486;2024-02-26T19:36:10;4.50;;;1.10;;
37891;SDS011;45797;47.466;9.486;2024-02-26T19:46:54;3.25;;;1.20;;
37891;SDS011;45797;47.466;9.486;2024-02-26T19:52:14;4.78;;;1.05;;
37891;SDS011;45797;47.466;9.486;2024-02-26T19:57:36;3.53;;;0.95;;
37891;SDS011;45797;47.466;9.486;2024-02-26T20:03:04;4.65;;;1.00;;
37891;SDS011;45797;47.466;9.486;2024-02-26T20:08:42;2.15;;;1.08;;
37891;SDS011;45797;47.466;9.486;2024-02-26T20:14:05;2.15;;;1.00;;
37891;SDS011;45797;47.466;9.486;2024-02-26T20:19:29;3.20;;;1.20;;
37891;SDS011;45797;47.466;9.486;2024-02-26T20:24:51;2.22;;;1.10;;
37891;SDS011;45797;47.466;9.486;2024-02-26T20:30:22;2.95;;;1.33;;
37891;SDS011;45797;47.466;9.486;2024-02-26T20:35:52;2.63;;;0.95;;
37891;SDS011;45797;47.466;9.486;2024-02-26T20:41:23;2.22;;;1.00;;
37891;SDS011;45797;47.466;9.486;2024-02-26T20:46:45;3.33;;;1.38;;
37891;SDS011;45797;47.466;9.486;2024-02-26T20:52:06;2.30;;;1.10;;
37891;SDS011;45797;47.466;9.486;2024-02-26T20:57:26;2.70;;;1.15;;
37891;SDS011;45797;47.466;9.486;2024-02-26T21:08:28;6.20;;;2.05;;
37891;SDS011;45797;47.466;9.486;2024-02-26T21:13:50;2.85;;;1.40;;
37891;SDS011;45797;47.466;9.486;2024-02-26T21:19:12;4.05;;;1.45;;
37891;SDS011;45797;47.466;9.486;2024-02-26T21:24:42;3.47;;;1.50;;
37891;SDS011;45797;47.466;9.486;2024-02-26T21:35:27;3.65;;;1.30;;
37891;SDS011;45797;47.466;9.486;2024-02-26T21:40:47;2.65;;;1.25;;
37891;SDS011;45797;47.466;9.486;2024-02-26T21:46:14;3.30;;;1.63;;
37891;SDS011;45797;47.466;9.486;2024-02-26T21:51:45;3.25;;;1.38;;
37891;SDS011;45797;47.466;9.486;2024-02-26T21:57:08;2.72;;;1.20;;
37891;SDS011;45797;47.466;9.486;2024-02-26T22:02:36;3.17;;;1.40;;
37891;SDS011;45797;47.466;9.486;2024-02-26T22:13:38;6.55;;;1.60;;
37891;SDS011;45797;47.466;9.486;2024-02-26T22:18:59;6.38;;;1.60;;
37891;SDS011;45797;47.466;9.486;2024-02-26T22:24:25;3.42;;;1.52;;
37891;SDS011;45797;47.466;9.486;2024-02-26T22:29:45;4.88;;;2.38;;
37891;SDS011;45797;47.466;9.486;2024-02-26T22:35:06;4.03;;;2.03;;
37891;SDS011;45797;47.466;9.486;2024-02-26T22:46:04;5.28;;;2.42;;
37891;SDS011;45797;47.466;9.486;2024-02-26T22:51:32;4.43;;;1.88;;
37891;SDS011;45797;47.466;9.486;2024-02-26T22:56:55;3.33;;;1.73;;
37891;SDS011;45797;47.466;9.486;2024-02-26T23:02:17;4.05;;;1.80;;
37891;SDS011;45797;47.466;9.486;2024-02-26T23:07:49;3.58;;;1.88;;
37891;SDS011;45797;47.466;9.486;2024-02-26T23:13:18;4.18;;;1.70;;
37891;SDS011;45797;47.466;9.486;2024-02-26T23:18:43;4.03;;;2.03;;
37891;SDS011;45797;47.466;9.486;2024-02-26T23:24:04;5.00;;;2.25;;
37891;SDS011;45797;47.466;9.486;2024-02-26T23:29:25;4.13;;;1.90;;
37891;SDS011;45797;47.466;9.486;2024-02-26T23:35:01;3.60;;;1.73;;
37891;SDS011;45797;47.466;9.486;2024-02-26T23:40:23;3.75;;;1.85;;
37891;SDS011;45797;47.466;9.486;2024-02-26T23:51:09;3.75;;;1.90;;
37891;SDS011;45797;47.466;9.486;2024-02-26T23:56:29;3.60;;;1.55;;
